Time;durP1;ratioP1;P1;durP2;ratioP2;P2;SDS_P1;SDS_P2;PMS_P1;PMS_P2;Temp;Humidity;BMP_temperature;BMP_pressure;BME280_temperature;BME280_humidity;BME280_pressure;Samples;Min_cycle;Max_cycle;Signal;HPM_P1;HPM_P2
2023/08/08 00:01:53;;;;;;;80.03;43.97;;;14.90;99.90;;;;;;6239505;23;20416;-78
2023/08/08 00:04:22;;;;;;;79.50;43.30;;;14.80;99.90;;;;;;6240279;23;20404;-77
2023/08/08 00:06:49;;;;;;;79.93;42.80;;;14.70;99.90;;;;;;6240846;23;20432;-77
2023/08/08 00:09:17;;;;;;;81.30;45.40;;;14.60;99.90;;;;;;6240694;23;20455;-77
2023/08/08 00:11:44;;;;;;;80.23;42.40;;;14.60;99.90;;;;;;6240682;23;20408;-78
2023/08/08 00:14:11;;;;;;;79.17;43.27;;;14.60;99.90;;;;;;6241502;23;20446;-80
2023/08/08 00:16:37;;;;;;;78.10;42.20;;;14.60;99.90;;;;;;6241128;23;20408;-79
2023/08/08 00:19:04;;;;;;;78.17;42.43;;;14.70;99.90;;;;;;6241631;23;20415;-81
2023/08/08 00:21:31;;;;;;;79.47;40.83;;;14.70;99.90;;;;;;6241135;23;20411;-79
2023/08/08 00:23:58;;;;;;;82.00;41.47;;;14.70;99.90;;;;;;6242822;23;20408;-81
2023/08/08 00:26:30;;;;;;;79.57;40.77;;;14.70;99.90;;;;;;6192225;22;1149699;-77
2023/08/08 00:28:58;;;;;;;79.37;44.03;;;14.70;99.90;;;;;;6242696;23;20181;-75
2023/08/08 00:31:24;;;;;;;78.73;40.80;;;14.70;99.90;;;;;;6243568;23;20451;-74
2023/08/08 00:33:53;;;;;;;77.63;40.73;;;14.80;99.90;;;;;;6243305;23;20423;-74
2023/08/08 00:36:20;;;;;;;78.27;40.63;;;14.80;99.90;;;;;;6243239;23;20408;-76
2023/08/08 00:38:48;;;;;;;80.80;41.77;;;14.80;99.90;;;;;;6243064;23;20906;-75
2023/08/08 00:41:18;;;;;;;77.83;41.83;;;14.80;99.90;;;;;;6243944;23;20408;-75
2023/08/08 00:43:46;;;;;;;77.57;41.63;;;14.70;99.90;;;;;;6243907;23;20895;-76
2023/08/08 00:46:13;;;;;;;78.20;41.67;;;14.70;99.90;;;;;;6243827;23;20942;-77
2023/08/08 00:48:39;;;;;;;78.63;41.93;;;14.70;99.90;;;;;;6243518;23;21076;-74
2023/08/08 00:51:06;;;;;;;79.00;44.30;;;14.70;99.90;;;;;;6243989;23;20408;-76
2023/08/08 00:53:33;;;;;;;79.63;44.77;;;14.70;99.90;;;;;;6243940;23;20415;-75
2023/08/08 00:56:00;;;;;;;80.70;43.20;;;14.80;99.90;;;;;;6243927;23;20408;-75
2023/08/08 00:58:27;;;;;;;79.83;43.87;;;14.70;99.90;;;;;;6243809;23;20399;-75
2023/08/08 01:00:59;;;;;;;78.70;41.87;;;14.80;99.90;;;;;;6243164;23;20400;-75
2023/08/08 01:03:26;;;;;;;78.90;42.67;;;14.70;99.90;;;;;;6243933;23;20388;-75
2023/08/08 01:06:02;;;;;;;80.17;42.97;;;14.80;99.90;;;;;;6243744;23;20414;-75
2023/08/08 01:08:36;;;;;;;79.20;43.40;;;14.80;99.90;;;;;;6244179;23;20718;-76
2023/08/08 01:11:04;;;;;;;79.60;43.70;;;14.80;99.90;;;;;;6243876;23;20387;-76
2023/08/08 01:13:32;;;;;;;81.00;45.33;;;14.80;99.90;;;;;;6242858;23;20906;-77
2023/08/08 01:16:01;;;;;;;79.77;45.10;;;14.80;99.90;;;;;;6242959;23;20407;-76
2023/08/08 01:18:28;;;;;;;81.73;44.73;;;14.80;99.90;;;;;;6243475;23;20404;-76
2023/08/08 01:20:56;;;;;;;80.67;46.20;;;14.80;99.90;;;;;;6243567;23;20414;-76
2023/08/08 01:23:29;;;;;;;80.37;46.60;;;14.80;99.90;;;;;;6242080;23;20919;-75
2023/08/08 01:25:58;;;;;;;79.40;44.37;;;14.80;99.90;;;;;;6242682;22;20423;-76
2023/08/08 01:28:25;;;;;;;79.80;42.97;;;14.80;99.90;;;;;;6242947;23;20428;-77
2023/08/08 01:30:53;;;;;;;80.27;43.60;;;14.80;99.90;;;;;;6244465;23;20404;-77
2023/08/08 01:33:20;;;;;;;79.20;42.07;;;14.80;99.90;;;;;;6243230;23;20507;-76
2023/08/08 01:35:54;;;;;;;79.33;44.23;;;14.80;99.90;;;;;;6243073;23;20408;-76
2023/08/08 01:38:27;;;;;;;80.60;44.43;;;14.80;99.90;;;;;;6243300;23;20764;-77
2023/08/08 01:40:58;;;;;;;78.47;42.67;;;14.80;99.90;;;;;;6243589;23;20392;-76
2023/08/08 01:43:25;;;;;;;78.90;43.60;;;14.80;99.90;;;;;;6243341;23;20524;-77
2023/08/08 01:45:52;;;;;;;78.30;41.67;;;14.80;99.90;;;;;;6244209;23;20426;-79
2023/08/08 01:48:19;;;;;;;77.93;41.60;;;14.80;99.90;;;;;;6243855;23;20436;-79
2023/08/08 01:50:46;;;;;;;79.07;42.83;;;14.80;99.90;;;;;;6244250;23;20406;-79
2023/08/08 01:53:22;;;;;;;80.17;45.53;;;14.70;99.90;;;;;;6244097;23;20914;-78
2023/08/08 01:55:48;;;;;;;80.50;46.27;;;14.70;99.90;;;;;;6244599;23;20399;-79
2023/08/08 01:58:16;;;;;;;80.37;45.30;;;14.80;99.90;;;;;;6244767;23;20731;-78
2023/08/08 02:00:44;;;;;;;79.47;44.47;;;14.80;99.90;;;;;;6244034;23;20404;-79
2023/08/08 02:03:11;;;;;;;79.07;43.13;;;14.80;99.90;;;;;;6242265;23;20908;-78
2023/08/08 02:05:38;;;;;;;81.50;44.40;;;14.80;99.90;;;;;;6242589;23;20438;-78
2023/08/08 02:08:05;;;;;;;79.70;43.97;;;14.80;99.90;;;;;;6242629;23;20436;-77
2023/08/08 02:10:32;;;;;;;78.77;44.87;;;14.80;99.90;;;;;;6242188;23;20895;-78
2023/08/08 02:12:59;;;;;;;84.67;43.87;;;14.90;99.90;;;;;;6242236;23;20426;-77
2023/08/08 02:15:27;;;;;;;80.00;45.53;;;14.80;99.90;;;;;;6242531;23;20404;-76
2023/08/08 02:17:53;;;;;;;79.13;45.13;;;14.90;99.90;;;;;;6242522;23;20404;-77
2023/08/08 02:20:20;;;;;;;79.10;44.50;;;14.80;99.90;;;;;;6242536;23;20491;-77
2023/08/08 02:22:47;;;;;;;84.77;42.83;;;14.80;99.90;;;;;;6242526;23;20399;-76
2023/08/08 02:25:14;;;;;;;81.20;43.73;;;14.80;99.90;;;;;;6242447;22;20428;-77
2023/08/08 02:27:40;;;;;;;80.67;45.37;;;14.80;99.90;;;;;;6242115;23;20431;-77
2023/08/08 02:30:08;;;;;;;83.17;47.23;;;14.80;99.90;;;;;;6241278;23;20930;-78
2023/08/08 02:32:36;;;;;;;81.60;45.27;;;14.90;99.90;;;;;;6241891;23;20759;-77
2023/08/08 02:35:03;;;;;;;79.57;45.63;;;14.90;99.90;;;;;;6242688;23;20399;-77
2023/08/08 02:37:30;;;;;;;80.70;45.40;;;14.90;99.90;;;;;;6242862;23;20411;-78
2023/08/08 02:39:56;;;;;;;79.30;44.33;;;14.90;99.90;;;;;;6242542;23;20423;-76
2023/08/08 02:42:23;;;;;;;82.03;44.70;;;14.90;99.90;;;;;;6242500;23;20407;-77
2023/08/08 02:44:50;;;;;;;79.40;43.13;;;14.90;99.90;;;;;;6242688;23;20414;-77
2023/08/08 02:47:16;;;;;;;78.20;42.10;;;14.80;99.90;;;;;;6242754;23;20411;-77
2023/08/08 02:49:44;;;;;;;78.87;42.07;;;14.90;99.90;;;;;;6241786;23;20926;-77
2023/08/08 02:52:11;;;;;;;77.97;42.20;;;15.10;99.90;;;;;;6242618;23;20400;-77
2023/08/08 02:54:38;;;;;;;78.50;43.80;;;15.20;99.90;;;;;;6242243;23;20410;-76
2023/08/08 02:57:05;;;;;;;77.77;42.43;;;15.20;99.90;;;;;;6242374;23;20408;-79
2023/08/08 02:59:32;;;;;;;78.60;44.10;;;15.30;99.90;;;;;;6242739;23;20400;-80
2023/08/08 03:01:58;;;;;;;78.10;43.17;;;15.20;99.90;;;;;;6242624;23;20411;-80
2023/08/08 03:04:25;;;;;;;78.37;42.07;;;15.20;99.90;;;;;;6242872;23;20720;-80
2023/08/08 03:06:53;;;;;;;80.50;44.37;;;15.10;99.90;;;;;;6242554;23;20410;-81
2023/08/08 03:09:20;;;;;;;79.87;42.07;;;15.00;99.90;;;;;;6242255;23;20443;-81
2023/08/08 03:11:46;;;;;;;81.00;47.10;;;15.00;99.90;;;;;;6242797;23;20426;-81
2023/08/08 03:14:13;;;;;;;83.60;45.90;;;14.90;99.90;;;;;;6243331;23;20419;-78
2023/08/08 03:16:40;;;;;;;80.70;47.83;;;14.90;99.90;;;;;;6248659;23;20491;-87
2023/08/08 03:19:07;;;;;;;79.27;45.50;;;14.80;99.90;;;;;;6243719;23;20408;-79
2023/08/08 03:21:33;;;;;;;80.30;44.60;;;14.80;99.90;;;;;;6243243;23;20411;-81
2023/08/08 03:24:01;;;;;;;80.10;44.03;;;14.70;99.90;;;;;;6243377;23;20734;-83
2023/08/08 03:26:28;;;;;;;80.13;46.87;;;14.70;99.90;;;;;;6245013;22;20443;-79
2023/08/08 03:28:55;;;;;;;84.07;47.00;;;14.70;99.90;;;;;;6243909;23;20444;-79
2023/08/08 03:31:22;;;;;;;80.50;46.37;;;14.70;99.90;;;;;;6245346;23;20384;-79
2023/08/08 03:33:49;;;;;;;83.10;47.40;;;14.60;99.90;;;;;;6245377;23;20396;-78
2023/08/08 03:36:15;;;;;;;86.20;48.73;;;14.70;99.90;;;;;;6243688;23;20416;-78
2023/08/08 03:38:44;;;;;;;80.20;47.10;;;14.70;99.90;;;;;;6243401;23;20419;-76
2023/08/08 03:41:13;;;;;;;80.33;44.40;;;14.70;99.90;;;;;;6242762;23;20418;-74
2023/08/08 03:43:39;;;;;;;84.17;47.00;;;14.70;99.90;;;;;;6243534;23;20474;-75
2023/08/08 03:46:06;;;;;;;82.50;47.60;;;14.70;99.90;;;;;;6243480;23;20404;-85
2023/08/08 03:48:33;;;;;;;81.00;47.90;;;14.70;99.90;;;;;;6241792;23;20404;-80
2023/08/08 03:51:00;;;;;;;79.40;46.07;;;14.80;99.90;;;;;;6243523;23;20400;-81
2023/08/08 03:53:26;;;;;;;81.37;46.90;;;14.80;99.90;;;;;;6243819;23;20408;-81
2023/08/08 03:59:03;;;;;;;81.47;47.97;;;14.80;99.90;;;;;;6215663;23;20458;-75
2023/08/08 04:01:30;;;;;;;81.57;46.50;;;14.80;99.90;;;;;;6242350;23;20403;-75
2023/08/08 04:03:56;;;;;;;79.93;46.67;;;14.90;99.90;;;;;;6242600;23;20407;-75
2023/08/08 04:06:23;;;;;;;80.33;46.23;;;14.90;99.90;;;;;;6243415;23;20884;-76
2023/08/08 04:08:50;;;;;;;81.40;42.60;;;14.90;99.90;;;;;;6242840;23;20436;-75
2023/08/08 04:11:17;;;;;;;82.47;45.17;;;15.00;99.90;;;;;;6243491;23;20422;-75
2023/08/08 04:13:43;;;;;;;80.73;44.60;;;15.00;99.90;;;;;;6243141;23;20408;-76
2023/08/08 04:16:11;;;;;;;79.60;43.37;;;15.00;99.90;;;;;;6242903;23;20404;-74
2023/08/08 04:18:38;;;;;;;83.23;44.87;;;15.00;99.90;;;;;;6242210;23;20408;-75
2023/08/08 04:21:05;;;;;;;83.77;48.13;;;15.10;99.90;;;;;;6243678;23;20411;-75
2023/08/08 04:23:31;;;;;;;81.30;45.80;;;15.10;99.90;;;;;;6242618;23;20913;-74
2023/08/08 04:25:58;;;;;;;82.17;46.40;;;15.10;99.90;;;;;;6242407;22;20431;-75
2023/08/08 04:28:25;;;;;;;79.87;45.17;;;15.20;99.90;;;;;;6242854;23;20396;-75
2023/08/08 04:30:51;;;;;;;79.63;44.37;;;15.30;99.90;;;;;;6242663;23;20446;-75
2023/08/08 04:33:19;;;;;;;83.37;43.50;;;15.30;99.90;;;;;;6242778;23;20400;-76
2023/08/08 04:35:47;;;;;;;82.80;46.20;;;15.30;99.90;;;;;;6242067;23;20432;-75
2023/08/08 04:38:15;;;;;;;82.47;48.27;;;15.40;99.90;;;;;;6242783;23;20403;-76
2023/08/08 04:40:41;;;;;;;82.77;45.57;;;15.40;99.90;;;;;;6242093;23;20407;-75
2023/08/08 04:43:08;;;;;;;82.07;45.00;;;15.40;99.90;;;;;;6242536;23;20424;-75
2023/08/08 04:45:35;;;;;;;83.80;44.30;;;15.50;99.90;;;;;;6242388;23;20415;-75
2023/08/08 04:48:01;;;;;;;79.00;43.80;;;15.50;99.90;;;;;;6242824;23;20404;-75
2023/08/08 04:50:29;;;;;;;84.37;44.83;;;15.50;99.90;;;;;;6242730;23;20431;-75
2023/08/08 04:52:56;;;;;;;82.53;43.80;;;15.60;99.90;;;;;;6242322;23;20404;-75
2023/08/08 04:55:23;;;;;;;85.83;42.43;;;15.60;99.90;;;;;;6242617;23;20407;-75
2023/08/08 04:57:50;;;;;;;81.60;44.27;;;15.70;99.90;;;;;;6242255;23;20403;-74
2023/08/08 05:00:17;;;;;;;82.20;42.07;;;15.80;99.90;;;;;;6242286;23;20888;-74
2023/08/08 05:02:44;;;;;;;80.50;42.57;;;16.10;99.90;;;;;;6242241;23;20399;-74
2023/08/08 05:05:10;;;;;;;79.07;39.60;;;16.30;99.90;;;;;;6242207;23;20668;-75
2023/08/08 05:07:38;;;;;;;77.90;39.30;;;16.50;99.90;;;;;;6241503;23;20404;-74
2023/08/08 05:10:06;;;;;;;79.23;41.57;;;16.60;99.90;;;;;;6242361;23;20439;-74
2023/08/08 05:12:33;;;;;;;80.83;38.53;;;16.70;99.90;;;;;;6242339;23;20427;-74
2023/08/08 05:15:00;;;;;;;81.50;41.03;;;16.70;99.90;;;;;;6243291;23;20407;-74
2023/08/08 05:17:26;;;;;;;79.13;35.63;;;16.50;99.90;;;;;;6242629;23;20404;-74
2023/08/08 05:19:53;;;;;;;78.27;39.60;;;16.50;99.90;;;;;;6242592;23;20880;-74
2023/08/08 05:22:20;;;;;;;79.10;39.17;;;16.70;99.90;;;;;;6242320;23;20407;-75
2023/08/08 05:24:48;;;;;;;81.10;37.60;;;17.00;99.90;;;;;;6241952;22;20423;-74
2023/08/08 05:27:15;;;;;;;78.43;37.30;;;17.20;99.90;;;;;;6242279;23;20428;-74
2023/08/08 05:29:41;;;;;;;81.23;36.67;;;17.40;99.90;;;;;;6241635;23;20947;-74
2023/08/08 05:32:08;;;;;;;78.00;36.70;;;17.60;99.90;;;;;;6242033;23;20400;-74
2023/08/08 05:34:35;;;;;;;77.20;35.80;;;17.80;99.90;;;;;;6242335;23;20431;-74
2023/08/08 05:37:03;;;;;;;75.87;35.33;;;18.10;99.90;;;;;;6242266;23;20403;-74
2023/08/08 05:39:30;;;;;;;75.70;34.33;;;18.30;99.90;;;;;;6241844;23;20404;-74
2023/08/08 05:41:58;;;;;;;76.47;36.40;;;18.10;99.90;;;;;;6242187;23;20403;-74
2023/08/08 05:44:25;;;;;;;75.87;35.80;;;18.00;99.90;;;;;;6242000;23;20403;-73
2023/08/08 05:46:52;;;;;;;75.27;35.23;;;18.00;99.90;;;;;;6241379;23;20403;-74
2023/08/08 05:49:19;;;;;;;76.47;36.00;;;18.20;99.90;;;;;;6241762;23;20439;-74
2023/08/08 05:51:46;;;;;;;76.07;35.50;;;18.50;99.90;;;;;;6241717;23;20411;-74
2023/08/08 05:54:12;;;;;;;75.17;35.40;;;18.50;99.90;;;;;;6242075;23;20729;-73
2023/08/08 05:56:39;;;;;;;76.07;35.03;;;18.60;99.90;;;;;;6241782;23;20414;-74
2023/08/08 05:59:07;;;;;;;74.73;34.27;;;18.80;99.90;;;;;;6241868;23;20423;-74
2023/08/08 06:01:35;;;;;;;75.37;33.40;;;18.80;99.90;;;;;;6242210;23;20415;-74
2023/08/08 06:04:03;;;;;;;74.73;33.07;;;18.90;99.90;;;;;;6241577;23;20411;-75
2023/08/08 06:06:30;;;;;;;74.70;34.00;;;19.00;99.90;;;;;;6242040;23;20408;-74
2023/08/08 06:08:56;;;;;;;77.60;34.90;;;19.10;99.90;;;;;;6241641;23;20407;-74
2023/08/08 06:11:23;;;;;;;77.43;33.77;;;19.40;99.90;;;;;;6241667;23;20447;-74
2023/08/08 06:13:50;;;;;;;74.90;33.70;;;19.50;99.90;;;;;;6241521;23;20411;-74
2023/08/08 06:16:18;;;;;;;74.13;34.33;;;19.60;99.90;;;;;;6242042;23;20408;-73
2023/08/08 06:18:45;;;;;;;73.97;33.27;;;19.80;99.90;;;;;;6242379;23;20400;-73
2023/08/08 06:21:11;;;;;;;75.27;34.23;;;19.70;99.90;;;;;;6241926;23;20396;-74
2023/08/08 06:23:38;;;;;;;73.77;33.17;;;19.70;99.90;;;;;;6241532;23;20404;-74
2023/08/08 06:26:05;;;;;;;76.80;33.20;;;19.80;99.90;;;;;;6241703;22;20419;-74
2023/08/08 06:28:32;;;;;;;74.30;33.53;;;19.80;99.90;;;;;;6241780;23;20389;-74
2023/08/08 06:30:59;;;;;;;74.93;34.77;;;19.90;99.90;;;;;;6241397;23;20970;-73
2023/08/08 06:33:27;;;;;;;74.07;33.90;;;20.00;99.90;;;;;;6241726;23;20403;-74
2023/08/08 06:35:56;;;;;;;74.70;33.57;;;20.40;99.90;;;;;;6241542;23;20748;-75
2023/08/08 06:38:22;;;;;;;72.97;32.10;;;20.80;99.40;;;;;;6241873;23;20415;-74
2023/08/08 06:40:50;;;;;;;74.00;34.50;;;20.80;98.90;;;;;;6241880;23;20407;-74
2023/08/08 06:43:16;;;;;;;73.47;33.30;;;20.90;99.10;;;;;;6241825;23;20900;-74
2023/08/08 06:45:43;;;;;;;73.17;32.63;;;21.60;98.00;;;;;;6241923;23;20404;-74
2023/08/08 06:48:10;;;;;;;73.20;33.93;;;22.20;96.50;;;;;;6242038;23;20474;-75
2023/08/08 06:50:38;;;;;;;73.30;33.90;;;22.20;95.80;;;;;;6241242;23;20954;-75
2023/08/08 06:53:05;;;;;;;74.70;34.83;;;21.90;95.80;;;;;;6241469;23;20408;-74
2023/08/08 06:55:32;;;;;;;73.87;33.43;;;21.70;96.50;;;;;;6242197;23;20459;-74
2023/08/08 06:57:59;;;;;;;72.73;33.03;;;21.80;96.30;;;;;;6241457;23;20492;-74
2023/08/08 07:00:27;;;;;;;73.37;32.83;;;22.40;95.30;;;;;;6243049;23;20399;-75
2023/08/08 07:02:53;;;;;;;75.67;33.37;;;23.00;94.20;;;;;;6243249;23;20512;-75
2023/08/08 07:05:22;;;;;;;74.17;34.37;;;23.40;93.50;;;;;;6243887;23;20438;-75
2023/08/08 07:07:50;;;;;;;76.43;33.57;;;23.90;92.30;;;;;;6244025;23;20415;-74
2023/08/08 07:10:17;;;;;;;75.50;33.23;;;24.00;92.20;;;;;;6244037;23;20439;-74
2023/08/08 07:12:43;;;;;;;74.07;34.50;;;23.70;92.20;;;;;;6243021;23;20411;-75
2023/08/08 07:15:11;;;;;;;73.20;34.37;;;23.70;92.40;;;;;;6243617;23;20891;-75
2023/08/08 07:17:37;;;;;;;74.87;33.67;;;24.20;91.40;;;;;;6243076;23;20896;-75
2023/08/08 07:20:05;;;;;;;73.40;33.63;;;24.40;91.10;;;;;;6244022;23;20408;-74
2023/08/08 07:22:32;;;;;;;72.80;34.03;;;24.60;90.80;;;;;;6243929;23;20418;-74
2023/08/08 07:25:01;;;;;;;71.50;32.67;;;25.00;90.00;;;;;;6243879;22;20493;-74
2023/08/08 07:27:27;;;;;;;72.23;33.93;;;24.70;89.00;;;;;;6243158;23;20454;-74
2023/08/08 07:29:54;;;;;;;72.77;33.00;;;25.00;89.20;;;;;;6242449;23;21081;-74
2023/08/08 07:32:21;;;;;;;73.50;33.50;;;25.30;88.30;;;;;;6243148;23;20400;-74
2023/08/08 07:34:48;;;;;;;71.80;33.27;;;25.50;88.00;;;;;;6242915;23;20532;-76
2023/08/08 07:37:15;;;;;;;71.07;33.30;;;25.90;86.60;;;;;;6243879;23;20425;-74
2023/08/08 07:39:42;;;;;;;72.00;33.10;;;25.70;84.60;;;;;;6243133;23;20406;-74
2023/08/08 07:42:10;;;;;;;71.67;33.70;;;25.60;86.10;;;;;;6243310;23;20426;-74
2023/08/08 07:44:38;;;;;;;72.80;34.53;;;26.40;83.60;;;;;;6243182;23;20400;-76
2023/08/08 07:47:05;;;;;;;71.90;33.73;;;27.20;80.70;;;;;;6242885;23;20411;-76
2023/08/08 07:49:32;;;;;;;71.17;33.83;;;27.90;78.40;;;;;;6244549;23;20499;-75
2023/08/08 07:51:59;;;;;;;70.37;32.40;;;28.50;74.20;;;;;;6243640;23;20412;-75
2023/08/08 07:54:25;;;;;;;71.60;33.90;;;28.80;74.20;;;;;;6241809;23;20910;-75
2023/08/08 07:56:52;;;;;;;71.00;33.63;;;29.20;70.60;;;;;;6244131;23;20426;-75
2023/08/08 07:59:20;;;;;;;70.50;33.77;;;28.90;71.70;;;;;;6243796;23;20900;-75
2023/08/08 08:01:47;;;;;;;71.80;32.87;;;29.10;68.60;;;;;;6243627;23;20407;-75
2023/08/08 08:04:13;;;;;;;70.37;32.50;;;28.40;69.20;;;;;;6243205;23;20400;-75
2023/08/08 08:06:40;;;;;;;72.17;33.07;;;27.70;72.20;;;;;;6243276;23;20418;-74
2023/08/08 08:09:07;;;;;;;71.70;33.33;;;27.50;71.80;;;;;;6243175;23;20909;-74
2023/08/08 08:11:34;;;;;;;70.50;31.00;;;27.30;71.90;;;;;;6243636;23;20526;-75
2023/08/08 08:14:01;;;;;;;71.67;31.90;;;26.20;73.50;;;;;;6243767;23;20407;-75
2023/08/08 08:16:29;;;;;;;70.97;31.83;;;25.90;75.00;;;;;;6243334;23;20408;-74
2023/08/08 08:18:56;;;;;;;70.83;31.83;;;25.70;76.30;;;;;;6243385;23;20482;-74
2023/08/08 08:21:23;;;;;;;71.63;32.60;;;25.90;76.80;;;;;;6243212;23;20400;-74
2023/08/08 08:23:49;;;;;;;74.00;33.70;;;26.40;74.40;;;;;;6242813;23;20400;-75
2023/08/08 08:26:16;;;;;;;72.53;34.70;;;26.40;73.50;;;;;;6243107;22;20439;-75
2023/08/08 08:28:43;;;;;;;72.50;34.17;;;26.00;75.80;;;;;;6242811;23;20388;-74
2023/08/08 08:31:10;;;;;;;71.63;34.33;;;26.00;75.50;;;;;;6242513;23;20825;-75
2023/08/08 08:33:38;;;;;;;73.30;32.60;;;25.90;74.30;;;;;;6243269;23;20437;-74
2023/08/08 08:36:04;;;;;;;71.80;33.20;;;25.50;75.40;;;;;;6243269;23;20414;-75
2023/08/08 08:38:31;;;;;;;71.90;33.40;;;25.60;75.00;;;;;;6243469;23;20404;-75
2023/08/08 08:40:59;;;;;;;72.33;33.20;;;25.90;75.10;;;;;;6242972;23;20407;-75
2023/08/08 08:43:26;;;;;;;71.13;32.60;;;26.10;74.10;;;;;;6242912;23;20400;-75
2023/08/08 08:45:54;;;;;;;72.27;32.93;;;26.20;73.80;;;;;;6242776;23;20410;-75
2023/08/08 08:48:22;;;;;;;71.20;32.30;;;25.80;74.50;;;;;;6242887;23;20404;-74
2023/08/08 08:50:50;;;;;;;71.97;32.47;;;25.70;76.10;;;;;;6242922;23;20797;-75
2023/08/08 08:53:18;;;;;;;73.93;32.53;;;25.40;76.40;;;;;;6242703;23;20404;-75
2023/08/08 08:55:45;;;;;;;71.50;33.20;;;25.60;77.50;;;;;;6243109;23;20427;-75
2023/08/08 08:58:14;;;;;;;72.33;34.77;;;26.20;75.70;;;;;;6235918;23;20653;-75
2023/08/08 09:00:41;;;;;;;71.23;33.37;;;26.10;74.00;;;;;;6242866;23;20411;-75
2023/08/08 09:03:08;;;;;;;72.47;33.60;;;26.30;74.80;;;;;;6243286;23;20676;-75
2023/08/08 09:05:35;;;;;;;73.47;35.80;;;26.90;73.80;;;;;;6243251;23;20415;-77
2023/08/08 09:08:03;;;;;;;71.63;33.63;;;27.40;72.80;;;;;;6243427;23;20404;-75
2023/08/08 09:10:32;;;;;;;70.97;34.70;;;28.10;71.90;;;;;;6242110;23;20447;-75
2023/08/08 09:12:59;;;;;;;69.50;32.33;;;29.20;67.50;;;;;;6242682;23;20414;-75
2023/08/08 09:15:26;;;;;;;70.00;32.07;;;30.30;64.60;;;;;;6242760;23;20635;-76
2023/08/08 09:17:53;;;;;;;70.57;33.23;;;30.70;63.50;;;;;;6240600;23;20403;-75
2023/08/08 09:20:20;;;;;;;71.40;34.83;;;30.80;61.20;;;;;;6243056;23;20396;-75
2023/08/08 09:22:47;;;;;;;70.23;31.70;;;30.10;60.20;;;;;;6241876;23;20404;-75
2023/08/08 09:25:15;;;;;;;70.67;31.70;;;30.00;62.00;;;;;;6241820;22;20422;-75
2023/08/08 09:27:42;;;;;;;70.77;31.37;;;29.30;61.90;;;;;;6242047;23;20428;-74
2023/08/08 09:30:11;;;;;;;72.40;32.07;;;28.50;65.50;;;;;;6241750;23;20411;-74
2023/08/08 09:32:38;;;;;;;70.57;32.77;;;28.30;64.50;;;;;;6241416;23;20727;-74
2023/08/08 09:35:09;;;;;;;72.33;32.90;;;28.00;66.00;;;;;;6241565;23;20903;-75
2023/08/08 09:37:36;;;;;;;71.23;32.87;;;28.10;65.60;;;;;;6244458;23;20403;-75
2023/08/08 09:40:07;;;;;;;70.10;32.60;;;28.70;65.10;;;;;;6242724;23;20416;-74
2023/08/08 09:42:36;;;;;;;73.27;32.57;;;28.40;64.80;;;;;;6242190;23;20709;-74
2023/08/08 09:45:03;;;;;;;71.07;32.63;;;27.70;67.10;;;;;;6242264;23;20404;-75
2023/08/08 09:47:31;;;;;;;71.40;32.70;;;28.20;65.80;;;;;;6242538;23;20408;-75
2023/08/08 09:49:59;;;;;;;70.20;31.50;;;28.80;64.20;;;;;;6242567;23;20454;-74
2023/08/08 09:52:28;;;;;;;69.67;31.90;;;29.80;60.10;;;;;;6241968;23;20757;-75
2023/08/08 09:54:55;;;;;;;70.37;32.70;;;29.70;59.70;;;;;;6242118;23;20404;-76
2023/08/08 09:57:23;;;;;;;72.57;36.07;;;29.40;59.70;;;;;;6242017;23;20404;-75
2023/08/08 09:59:52;;;;;;;69.90;32.17;;;29.40;59.60;;;;;;6242341;23;20408;-75
2023/08/08 10:02:19;;;;;;;70.43;33.17;;;29.80;60.20;;;;;;6242008;23;20400;-75
2023/08/08 10:04:47;;;;;;;70.00;32.83;;;30.70;58.00;;;;;;6242833;23;20411;-75
2023/08/08 10:07:14;;;;;;;71.30;32.77;;;31.70;56.00;;;;;;6242725;23;20400;-75
2023/08/08 10:09:42;;;;;;;69.57;32.90;;;31.90;55.60;;;;;;6242393;23;20408;-75
2023/08/08 10:12:10;;;;;;;71.17;32.53;;;31.80;54.90;;;;;;6242315;23;20439;-75
2023/08/08 10:14:38;;;;;;;69.87;32.30;;;31.40;55.40;;;;;;6242230;23;20909;-75
2023/08/08 10:17:06;;;;;;;71.60;32.70;;;30.70;55.50;;;;;;6242926;23;20404;-75
2023/08/08 10:19:33;;;;;;;71.80;33.17;;;30.60;56.40;;;;;;6242282;23;20467;-75
2023/08/08 10:22:04;;;;;;;69.53;32.70;;;31.40;54.80;;;;;;6235653;23;20915;-75
2023/08/08 10:24:35;;;;;;;72.27;31.57;;;31.10;53.70;;;;;;6242188;22;20940;-74
2023/08/08 10:27:02;;;;;;;68.67;32.07;;;31.20;54.20;;;;;;6242298;23;20815;-75
2023/08/08 10:29:30;;;;;;;70.50;32.50;;;31.20;53.70;;;;;;6242360;23;20466;-75
2023/08/08 10:32:00;;;;;;;68.80;32.47;;;30.40;54.50;;;;;;6241691;23;20447;-74
2023/08/08 10:34:38;;;;;;;68.80;31.70;;;30.30;54.30;;;;;;6243485;23;20913;-74
2023/08/08 10:37:06;;;;;;;68.97;31.20;;;30.40;54.30;;;;;;6244158;23;20411;-75
2023/08/08 10:39:33;;;;;;;68.63;31.90;;;31.10;51.50;;;;;;6244341;23;20446;-74
2023/08/08 10:42:04;;;;;;;71.53;32.60;;;31.00;50.30;;;;;;6244525;23;20399;-76
2023/08/08 10:44:31;;;;;;;71.47;33.10;;;30.90;51.20;;;;;;6244926;23;20399;-73
2023/08/08 10:46:58;;;;;;;70.50;32.77;;;31.30;51.00;;;;;;6243952;23;20407;-74
2023/08/08 10:49:24;;;;;;;70.13;33.30;;;32.20;49.30;;;;;;6244421;23;20656;-73
2023/08/08 10:51:52;;;;;;;68.57;31.30;;;32.60;49.80;;;;;;6244352;23;20439;-74
2023/08/08 10:54:22;;;;;;;69.40;32.47;;;33.80;48.00;;;;;;6243972;23;20404;-74
2023/08/08 10:56:50;;;;;;;72.53;35.63;;;33.40;46.20;;;;;;6243746;23;20392;-74
2023/08/08 10:59:21;;;;;;;69.67;32.10;;;31.70;48.10;;;;;;6243592;23;20426;-73
2023/08/08 11:01:50;;;;;;;70.10;32.00;;;30.30;49.50;;;;;;6244484;23;20391;-74
2023/08/08 11:04:18;;;;;;;69.63;30.90;;;29.00;50.30;;;;;;6244221;23;20443;-74
2023/08/08 11:06:46;;;;;;;71.17;32.60;;;29.00;48.40;;;;;;6242823;23;20883;-76
2023/08/08 11:09:15;;;;;;;74.47;32.30;;;29.70;47.70;;;;;;6243655;23;20416;-74
2023/08/08 11:11:43;;;;;;;69.30;30.90;;;30.40;47.50;;;;;;6243763;23;20439;-74
2023/08/08 11:14:12;;;;;;;71.60;31.33;;;31.00;46.80;;;;;;6244110;23;20404;-74
2023/08/08 11:16:39;;;;;;;69.00;31.70;;;31.40;46.00;;;;;;6240857;23;20415;-74
2023/08/08 11:19:06;;;;;;;69.20;32.20;;;31.10;45.70;;;;;;6243442;23;20582;-74
2023/08/08 11:21:36;;;;;;;68.97;31.10;;;29.90;46.10;;;;;;6243387;23;20400;-74
2023/08/08 11:24:03;;;;;;;69.53;30.70;;;29.40;47.70;;;;;;6243823;23;20411;-75
2023/08/08 11:26:31;;;;;;;69.83;30.60;;;29.30;49.00;;;;;;6242349;23;20443;-73
2023/08/08 11:29:00;;;;;;;69.07;30.93;;;29.10;49.50;;;;;;6240269;23;20414;-74
2023/08/08 11:31:27;;;;;;;69.07;30.00;;;29.00;48.50;;;;;;6242780;23;20447;-73
2023/08/08 11:33:54;;;;;;;71.63;32.03;;;28.60;49.40;;;;;;6243168;23;20407;-73
2023/08/08 11:36:22;;;;;;;69.90;30.70;;;28.30;49.10;;;;;;6242890;23;20412;-75
2023/08/08 11:38:49;;;;;;;73.37;31.00;;;28.30;49.60;;;;;;6243440;23;20403;-75
2023/08/08 11:41:18;;;;;;;70.77;31.53;;;27.80;51.60;;;;;;6243408;23;20403;-74
2023/08/08 11:43:47;;;;;;;68.90;30.60;;;29.20;51.30;;;;;;6242939;23;20400;-75
2023/08/08 11:49:30;;;;;;;69.47;31.47;;;30.30;46.10;;;;;;6224670;23;20454;-75
2023/08/08 11:51:59;;;;;;;69.10;31.10;;;30.80;44.00;;;;;;6242864;23;20479;-77
2023/08/08 11:54:27;;;;;;;71.10;34.67;;;30.90;44.30;;;;;;6242675;23;20801;-75
2023/08/08 11:56:54;;;;;;;75.53;33.23;;;30.40;45.30;;;;;;6243423;23;20750;-75
2023/08/08 11:59:22;;;;;;;70.20;32.07;;;29.70;46.70;;;;;;6242015;23;20710;-75
2023/08/08 12:01:50;;;;;;;69.30;30.20;;;29.70;47.80;;;;;;6243082;23;20400;-75
2023/08/08 12:04:20;;;;;;;69.77;32.23;;;28.90;48.70;;;;;;6243164;23;20410;-75
2023/08/08 12:06:47;;;;;;;69.77;31.27;;;28.50;49.60;;;;;;6243408;23;20712;-75
2023/08/08 12:09:14;;;;;;;71.57;32.47;;;28.30;50.90;;;;;;6243088;23;20403;-75
2023/08/08 12:11:41;;;;;;;68.17;30.80;;;28.90;51.20;;;;;;6242306;23;20617;-75
2023/08/08 12:14:09;;;;;;;69.00;31.23;;;30.10;48.10;;;;;;6242690;23;20979;-75
2023/08/08 12:16:39;;;;;;;72.07;35.10;;;30.50;47.40;;;;;;6243239;23;20415;-75
2023/08/08 12:19:14;;;;;;;69.50;33.47;;;30.80;45.70;;;;;;6243167;23;20464;-74
2023/08/08 12:21:41;;;;;;;69.57;33.30;;;30.20;46.40;;;;;;6242466;23;20625;-75
2023/08/08 12:24:08;;;;;;;70.50;32.40;;;29.40;48.50;;;;;;6242503;22;20404;-76
2023/08/08 12:26:34;;;;;;;70.37;34.70;;;29.50;48.80;;;;;;6242339;23;20431;-75
2023/08/08 12:29:01;;;;;;;70.97;32.30;;;30.50;47.00;;;;;;6243090;23;20495;-74
2023/08/08 12:31:28;;;;;;;69.80;31.77;;;30.70;45.40;;;;;;6242156;23;20443;-75
2023/08/08 12:33:56;;;;;;;69.07;32.60;;;31.00;45.20;;;;;;6242460;23;20404;-74